createdAt,value
2023-05-23T00:00:52.259Z,49.10
2023-05-23T00:03:22.866Z,44.25
2023-05-23T00:05:52.911Z,45.70
2023-05-23T00:08:21.936Z,41.28
2023-05-23T00:10:50.381Z,40.03
2023-05-23T00:13:20.362Z,41.65
2023-05-23T00:15:49.101Z,41.65
2023-05-23T00:18:17.639Z,45.15
2023-05-23T00:20:47.288Z,33.28
2023-05-23T00:23:19.345Z,37.47
2023-05-23T00:25:53.449Z,38.65
2023-05-23T00:28:23.810Z,38.80
2023-05-23T00:30:52.269Z,37.10
2023-05-23T00:33:22.209Z,35.92
2023-05-23T00:35:50.935Z,36.80
2023-05-23T00:38:19.726Z,32.85
2023-05-23T00:40:48.514Z,25.88
2023-05-23T00:43:16.945Z,20.58
2023-05-23T00:45:46.854Z,17.95
2023-05-23T00:48:15.928Z,19.02
2023-05-23T00:50:44.433Z,22.30
2023-05-23T00:53:13.770Z,26.42
2023-05-23T00:55:42.415Z,22.27
2023-05-23T00:58:11.551Z,21.10
2023-05-23T01:00:40.424Z,23.10
2023-05-23T01:03:16.921Z,25.20
2023-05-23T01:05:45.796Z,18.85
2023-05-23T01:08:15.992Z,22.02
2023-05-23T01:10:44.626Z,19.50
2023-05-23T01:13:23.893Z,26.83
2023-05-23T01:16:02.622Z,25.98
2023-05-23T01:18:41.571Z,23.25
2023-05-23T01:21:17.182Z,23.90
2023-05-23T01:24:14.285Z,24.98
2023-05-23T01:27:05.425Z,22.42
2023-05-23T01:29:40.275Z,30.65
2023-05-23T01:32:13.597Z,27.30
2023-05-23T01:34:43.819Z,26.83
2023-05-23T01:37:14.709Z,23.45
2023-05-23T01:39:44.373Z,30.30
2023-05-23T01:42:13.856Z,34.53
2023-05-23T01:44:46.657Z,31.80
2023-05-23T01:47:16.795Z,31.35
2023-05-23T01:49:46.690Z,33.20
2023-05-23T01:52:16.337Z,34.50
2023-05-23T01:54:45.772Z,32.15
2023-05-23T01:57:15.023Z,28.17
2023-05-23T01:59:44.852Z,30.70
2023-05-23T02:02:13.508Z,31.88
2023-05-23T02:04:42.038Z,29.77
2023-05-23T02:07:10.369Z,31.10
2023-05-23T02:09:38.733Z,29.48
2023-05-23T02:12:07.886Z,33.45
2023-05-23T02:14:37.567Z,31.63
2023-05-23T02:17:07.791Z,30.50
2023-05-23T02:19:36.263Z,31.70
2023-05-23T02:22:04.827Z,30.55
2023-05-23T02:24:33.272Z,27.95
2023-05-23T02:27:01.898Z,32.75
2023-05-23T02:29:30.339Z,35.13
2023-05-23T02:31:58.886Z,29.70
2023-05-23T02:34:28.723Z,30.42
2023-05-23T02:36:57.096Z,34.55
2023-05-23T02:39:25.420Z,38.28
2023-05-23T02:41:54.167Z,33.83
2023-05-23T02:44:22.554Z,29.27
2023-05-23T02:46:50.908Z,27.23
2023-05-23T02:49:19.351Z,25.52
2023-05-23T02:51:49.123Z,28.98
2023-05-23T02:54:17.433Z,29.23
2023-05-23T02:56:46.915Z,30.52
2023-05-23T02:59:15.800Z,26.83
2023-05-23T03:01:44.189Z,34.13
2023-05-23T03:04:15.327Z,31.15
2023-05-23T03:06:45.109Z,36.75
2023-05-23T03:09:17.911Z,31.27
2023-05-23T03:11:46.503Z,29.25
2023-05-23T03:14:14.867Z,34.17
2023-05-23T03:16:43.643Z,28.75
2023-05-23T03:19:12.266Z,26.05
2023-05-23T03:21:41.079Z,25.83
2023-05-23T03:24:09.484Z,26.60
2023-05-23T03:26:39.517Z,27.80
2023-05-23T03:29:07.977Z,25.65
2023-05-23T03:31:36.475Z,27.45
2023-05-23T03:34:05.756Z,28.50
2023-05-23T03:36:34.556Z,29.25
2023-05-23T03:39:03.039Z,23.23
2023-05-23T03:41:31.362Z,22.75
2023-05-23T03:44:01.700Z,20.80
2023-05-23T03:46:30.209Z,29.27
2023-05-23T03:48:58.612Z,22.00
2023-05-23T03:51:28.157Z,24.92
2023-05-23T03:53:56.523Z,19.48
2023-05-23T03:56:25.135Z,25.85
2023-05-23T03:58:53.511Z,24.77
2023-05-23T04:01:23.978Z,23.00
2023-05-23T04:03:52.970Z,21.90
2023-05-23T04:06:22.965Z,23.63
2023-05-23T04:08:51.391Z,20.88
2023-05-23T04:11:19.770Z,19.42
2023-05-23T04:13:48.396Z,19.85
2023-05-23T04:16:16.765Z,19.63
2023-05-23T04:18:47.670Z,20.33
2023-05-23T04:21:16.071Z,24.60
2023-05-23T04:23:44.827Z,22.75
2023-05-23T04:26:13.410Z,23.75
2023-05-23T04:28:43.989Z,23.92
2023-05-23T04:31:12.574Z,18.13
2023-05-23T04:33:41.238Z,18.35
2023-05-23T04:36:11.561Z,19.98
2023-05-23T04:38:41.513Z,17.15
2023-05-23T04:41:11.266Z,25.52
2023-05-23T04:43:42.750Z,21.65
2023-05-23T04:46:11.475Z,18.05
2023-05-23T04:48:39.835Z,15.85
2023-05-23T04:51:08.869Z,15.38
2023-05-23T04:53:41.243Z,20.70
2023-05-23T04:56:10.156Z,24.60
2023-05-23T04:58:40.763Z,22.15
2023-05-23T05:01:09.884Z,20.70
2023-05-23T05:03:38.777Z,21.45
2023-05-23T05:06:08.449Z,23.92
2023-05-23T05:08:38.325Z,26.15
2023-05-23T05:11:06.802Z,19.30
2023-05-23T05:13:35.206Z,23.55
2023-05-23T05:16:04.581Z,23.38
2023-05-23T05:18:33.290Z,28.25
2023-05-23T05:21:02.347Z,21.95
2023-05-23T05:23:33.373Z,23.85
2023-05-23T05:26:03.932Z,21.60
2023-05-23T05:28:32.438Z,27.60
2023-05-23T05:31:05.283Z,21.10
2023-05-23T05:33:36.447Z,24.90
2023-05-23T05:36:06.704Z,26.58
2023-05-23T05:38:35.533Z,24.92
2023-05-23T05:41:08.212Z,30.02
2023-05-23T05:43:37.615Z,28.35
2023-05-23T05:46:06.488Z,22.38
2023-05-23T05:48:35.039Z,25.45
2023-05-23T05:51:03.468Z,29.67
2023-05-23T05:53:31.855Z,19.35
2023-05-23T05:56:01.089Z,21.73
2023-05-23T05:58:31.260Z,27.70
2023-05-23T06:01:00.011Z,23.75
2023-05-23T06:03:28.717Z,26.65
2023-05-23T06:05:57.464Z,16.83
2023-05-23T06:08:25.787Z,21.35
2023-05-23T06:10:54.434Z,27.25
2023-05-23T06:13:22.974Z,17.70
2023-05-23T06:15:53.273Z,22.42
2023-05-23T06:18:21.785Z,20.60
2023-05-23T06:20:50.820Z,25.98
2023-05-23T06:23:19.266Z,23.90
2023-05-23T06:25:47.870Z,21.45
2023-05-23T06:28:16.324Z,21.90
2023-05-23T06:30:44.735Z,27.65
2023-05-23T06:33:14.600Z,21.63
2023-05-23T06:35:43.277Z,22.02
2023-05-23T06:38:11.613Z,24.02
2023-05-23T06:40:40.073Z,24.98
2023-05-23T06:43:08.585Z,20.45
2023-05-23T06:45:38.289Z,26.15
2023-05-23T06:48:07.225Z,22.48
2023-05-23T06:50:37.348Z,16.90
2023-05-23T06:53:06.519Z,20.23
2023-05-23T06:55:35.342Z,15.15
2023-05-23T06:58:04.541Z,19.85
2023-05-23T07:00:33.213Z,20.40
2023-05-23T07:03:03.799Z,17.83
2023-05-23T07:05:33.470Z,13.93
2023-05-23T07:08:03.721Z,12.52
2023-05-23T07:10:34.618Z,14.93
2023-05-23T07:13:03.192Z,11.93
2023-05-23T07:15:31.563Z,23.52
2023-05-23T07:17:59.935Z,16.05
2023-05-23T07:20:28.434Z,15.77
2023-05-23T07:22:57.424Z,15.65
2023-05-23T07:25:29.307Z,19.77
2023-05-23T07:27:57.732Z,16.40
2023-05-23T07:30:26.464Z,17.10
2023-05-23T07:32:55.449Z,13.07
2023-05-23T07:35:26.345Z,14.20
2023-05-23T07:37:55.080Z,16.23
2023-05-23T07:40:24.198Z,18.67
2023-05-23T07:42:55.840Z,13.15
2023-05-23T07:45:24.244Z,13.90
2023-05-23T07:47:52.939Z,19.00
2023-05-23T07:50:21.822Z,14.52
2023-05-23T07:52:51.613Z,13.10
2023-05-23T07:55:20.081Z,12.10
2023-05-23T07:57:48.814Z,10.88
2023-05-23T08:00:20.606Z,19.80
2023-05-23T08:02:50.158Z,16.95
2023-05-23T08:05:19.341Z,18.60
2023-05-23T08:07:47.942Z,14.20
2023-05-23T08:10:16.548Z,14.05
2023-05-23T08:12:44.981Z,13.52
2023-05-23T08:15:13.495Z,17.10
2023-05-23T08:17:43.743Z,18.40
2023-05-23T08:20:13.493Z,18.23
2023-05-23T08:22:42.250Z,19.63
2023-05-23T08:25:11.446Z,17.80
2023-05-23T08:27:39.809Z,16.88
2023-05-23T08:30:10.553Z,13.75
2023-05-23T08:32:38.927Z,13.15
2023-05-23T08:35:10.304Z,21.23
2023-05-23T08:37:38.794Z,16.52
2023-05-23T08:40:16.094Z,14.55
2023-05-23T08:42:44.536Z,14.02
2023-05-23T08:45:13.609Z,12.10
2023-05-23T08:47:46.776Z,15.93
2023-05-23T08:50:20.275Z,15.32
2023-05-23T08:52:57.282Z,17.13
2023-05-23T08:55:27.883Z,16.67
2023-05-23T08:57:56.902Z,17.88
2023-05-23T09:00:27.241Z,22.85
2023-05-23T09:02:55.744Z,13.18
2023-05-23T09:05:25.686Z,11.25
2023-05-23T09:07:55.157Z,15.00
2023-05-23T09:10:23.876Z,15.90
2023-05-23T09:12:52.332Z,16.90
2023-05-23T09:15:22.382Z,19.38
2023-05-23T09:17:50.818Z,16.83
2023-05-23T09:20:20.238Z,17.90
2023-05-23T09:22:50.929Z,16.15
2023-05-23T09:25:19.376Z,17.52
2023-05-23T09:27:48.467Z,19.25
2023-05-23T09:30:17.324Z,14.13
2023-05-23T09:33:05.453Z,13.18
2023-05-23T09:35:34.425Z,16.08
2023-05-23T09:38:04.280Z,20.58
2023-05-23T09:40:33.667Z,15.88
2023-05-23T09:43:05.090Z,15.80
2023-05-23T09:45:34.580Z,16.73
2023-05-23T09:48:02.995Z,16.63
2023-05-23T09:50:34.566Z,14.10
2023-05-23T09:53:04.881Z,14.68
2023-05-23T09:55:33.292Z,15.75
2023-05-23T09:58:02.154Z,15.23
2023-05-23T10:00:31.135Z,22.40
2023-05-23T10:03:12.467Z,22.80
2023-05-23T10:05:46.838Z,21.08
2023-05-23T10:08:22.260Z,14.02
2023-05-23T10:11:51.185Z,15.27
2023-05-23T10:14:20.197Z,13.60
2023-05-23T10:17:04.344Z,16.65
2023-05-23T10:19:39.793Z,13.25
2023-05-23T10:22:11.836Z,21.50
2023-05-23T10:24:42.084Z,17.92
2023-05-23T10:27:11.205Z,14.63
2023-05-23T10:29:39.885Z,18.17
2023-05-23T10:32:09.843Z,22.40
2023-05-23T10:34:48.870Z,17.88
2023-05-23T10:37:26.030Z,16.27
2023-05-23T10:40:06.233Z,17.13
2023-05-23T10:42:44.808Z,20.35
2023-05-23T10:45:18.305Z,18.30
2023-05-23T10:47:48.989Z,12.77
2023-05-23T10:50:33.025Z,15.02
2023-05-23T10:53:03.496Z,19.88
2023-05-23T10:55:36.672Z,20.02
2023-05-23T10:58:12.831Z,19.73
2023-05-23T11:00:41.887Z,16.92
2023-05-23T11:03:11.804Z,20.35
2023-05-23T11:05:54.480Z,20.98
2023-05-23T11:08:35.442Z,22.50
2023-05-23T11:11:14.101Z,17.75
2023-05-23T11:14:02.643Z,21.80
2023-05-23T11:16:33.896Z,21.20
2023-05-23T11:19:29.520Z,19.73
2023-05-23T11:22:03.840Z,22.40
2023-05-23T11:24:52.305Z,18.08
2023-05-23T11:27:28.966Z,18.52
2023-05-23T11:30:05.035Z,15.90
2023-05-23T11:32:34.825Z,20.63
2023-05-23T11:35:04.642Z,20.10
2023-05-23T11:37:33.460Z,22.77
2023-05-23T11:40:29.368Z,21.20
2023-05-23T11:42:59.780Z,21.00
2023-05-23T11:45:29.435Z,14.52
2023-05-23T11:47:57.865Z,15.00
2023-05-23T11:50:26.279Z,15.77
2023-05-23T11:52:56.809Z,15.75
2023-05-23T11:55:25.629Z,20.40
2023-05-23T11:57:59.127Z,15.55
2023-05-23T12:00:27.666Z,17.00
2023-05-23T12:02:56.084Z,18.45
2023-05-23T12:05:24.646Z,19.48
2023-05-23T12:07:53.034Z,16.08
2023-05-23T12:10:22.275Z,15.23
2023-05-23T12:12:53.492Z,13.50
2023-05-23T12:15:28.334Z,17.83
2023-05-23T12:17:58.083Z,15.95
2023-05-23T12:20:28.399Z,17.60
2023-05-23T12:22:58.863Z,24.30
2023-05-23T12:25:27.486Z,17.98
2023-05-23T12:27:56.392Z,15.63
2023-05-23T12:30:26.414Z,14.48
2023-05-23T12:32:55.563Z,19.77
2023-05-23T12:35:28.230Z,19.02
2023-05-23T12:37:58.857Z,16.35
2023-05-23T12:40:27.573Z,16.45
2023-05-23T12:42:58.078Z,12.80
2023-05-23T12:45:37.889Z,12.50
2023-05-23T12:48:07.581Z,20.08
2023-05-23T12:50:36.873Z,14.95
2023-05-23T12:53:05.601Z,17.35
2023-05-23T12:55:34.287Z,13.95
2023-05-23T12:58:03.095Z,18.58
2023-05-23T13:00:33.641Z,15.13
2023-05-23T13:03:02.493Z,13.25
2023-05-23T13:05:31.718Z,18.23
2023-05-23T13:08:00.984Z,14.00
2023-05-23T13:10:32.043Z,17.35
2023-05-23T13:13:01.236Z,16.17
2023-05-23T13:15:29.970Z,14.18
2023-05-23T13:18:00.046Z,14.25
2023-05-23T13:20:30.532Z,16.90
2023-05-23T13:22:59.893Z,15.27
2023-05-23T13:25:29.323Z,18.77
2023-05-23T13:27:58.178Z,15.77
2023-05-23T13:30:26.902Z,12.13
2023-05-23T13:32:56.028Z,17.90
2023-05-23T13:35:26.231Z,13.82
2023-05-23T13:37:55.465Z,13.45
2023-05-23T13:40:25.367Z,21.58
2023-05-23T13:42:54.614Z,13.98
2023-05-23T13:45:23.493Z,19.05
2023-05-23T13:47:52.635Z,13.02
2023-05-23T13:50:22.266Z,20.33
2023-05-23T13:52:53.054Z,15.77
2023-05-23T13:55:22.291Z,15.40
2023-05-23T13:57:51.077Z,18.08
2023-05-23T14:00:20.741Z,16.55
2023-05-23T14:02:49.645Z,15.45
2023-05-23T14:05:19.568Z,17.85
2023-05-23T14:07:48.548Z,15.88
2023-05-23T14:10:19.500Z,16.95
2023-05-23T14:12:49.890Z,17.15
2023-05-23T14:15:18.987Z,17.85
2023-05-23T14:17:48.105Z,10.90
2023-05-23T14:20:17.122Z,16.15
2023-05-23T14:22:47.664Z,14.43
2023-05-23T14:25:21.299Z,15.00
2023-05-23T14:27:52.985Z,15.07
2023-05-23T14:30:22.133Z,15.80
2023-05-23T14:32:52.256Z,18.10
2023-05-23T14:35:22.677Z,14.60
2023-05-23T14:37:52.489Z,18.73
2023-05-23T14:40:23.064Z,18.63
2023-05-23T14:42:51.558Z,15.63
2023-05-23T14:45:21.043Z,13.60
2023-05-23T14:47:49.807Z,15.65
2023-05-23T14:50:19.648Z,12.27
2023-05-23T14:52:48.708Z,13.38
2023-05-23T14:55:17.383Z,11.70
2023-05-23T14:57:47.878Z,14.10
2023-05-23T15:00:17.750Z,13.52
2023-05-23T15:02:47.025Z,16.92
2023-05-23T15:05:17.161Z,13.30
2023-05-23T15:07:47.136Z,14.20
2023-05-23T15:10:16.494Z,19.55
2023-05-23T15:12:46.969Z,14.48
2023-05-23T15:15:22.705Z,14.73
2023-05-23T15:17:53.146Z,14.27
2023-05-23T15:20:25.005Z,10.65
2023-05-23T15:22:57.535Z,16.05
2023-05-23T15:25:43.259Z,13.32
2023-05-23T15:28:17.637Z,19.85
2023-05-23T15:30:46.484Z,12.07
2023-05-23T15:33:16.130Z,13.55
2023-05-23T15:35:45.467Z,16.27
2023-05-23T15:38:18.346Z,16.33
2023-05-23T15:40:49.405Z,18.73
2023-05-23T15:43:21.224Z,13.65
2023-05-23T15:45:53.161Z,15.20
2023-05-23T15:48:22.051Z,16.95
2023-05-23T15:50:51.991Z,14.43
2023-05-23T15:53:21.296Z,21.95
2023-05-23T15:55:50.355Z,19.58
2023-05-23T15:58:21.050Z,16.20
2023-05-23T16:00:51.632Z,13.85
2023-05-23T16:03:20.832Z,17.73
2023-05-23T16:08:32.862Z,12.73
2023-05-23T16:11:13.352Z,15.77
2023-05-23T16:13:47.935Z,15.98
2023-05-23T16:16:18.940Z,24.05
2023-05-23T16:18:48.095Z,15.82
2023-05-23T16:21:20.569Z,21.02
2023-05-23T16:23:49.932Z,14.63
2023-05-23T16:26:19.891Z,16.00
2023-05-23T16:28:51.196Z,18.27
2023-05-23T16:31:20.084Z,18.23
2023-05-23T16:33:52.195Z,14.80
2023-05-23T16:36:21.665Z,15.70
2023-05-23T16:38:59.700Z,12.68
2023-05-23T16:41:29.258Z,16.00
2023-05-23T16:44:01.410Z,17.67
2023-05-23T16:46:30.852Z,17.25
2023-05-23T16:49:00.554Z,17.80
2023-05-23T16:51:29.282Z,17.35
2023-05-23T16:53:58.566Z,17.50
2023-05-23T16:56:27.907Z,12.95
2023-05-23T16:58:57.084Z,19.25
2023-05-23T17:01:27.503Z,13.95
2023-05-23T17:03:57.097Z,16.60
2023-05-23T17:06:25.976Z,15.57
2023-05-23T17:08:57.769Z,12.68
2023-05-23T17:11:27.859Z,14.20
2023-05-23T17:13:56.855Z,20.00
2023-05-23T17:16:30.298Z,14.10
2023-05-23T17:18:59.564Z,18.90
2023-05-23T17:21:28.688Z,16.13
2023-05-23T17:23:57.346Z,18.17
2023-05-23T17:26:28.447Z,18.73
2023-05-23T17:28:57.304Z,19.95
2023-05-23T17:31:30.425Z,16.10
2023-05-23T17:33:59.631Z,14.48
2023-05-23T17:36:29.672Z,17.58
2023-05-23T17:38:58.697Z,16.27
2023-05-23T17:41:30.202Z,15.80
2023-05-23T17:43:59.270Z,15.13
2023-05-23T17:46:29.850Z,18.20
2023-05-23T17:49:00.961Z,12.82
2023-05-23T17:51:31.031Z,15.55
2023-05-23T17:53:59.610Z,19.25
2023-05-23T17:56:28.607Z,13.70
2023-05-23T17:58:57.387Z,16.83
2023-05-23T18:01:34.497Z,14.95
2023-05-23T18:04:06.475Z,16.60
2023-05-23T18:06:37.088Z,15.35
2023-05-23T18:09:06.756Z,14.85
2023-05-23T18:11:36.330Z,11.18
2023-05-23T18:14:05.660Z,13.88
2023-05-23T18:16:40.600Z,15.93
2023-05-23T18:19:11.028Z,12.80
2023-05-23T18:21:39.831Z,15.25
2023-05-23T18:24:14.334Z,17.85
2023-05-23T18:26:45.633Z,20.80
2023-05-23T18:29:14.453Z,12.05
2023-05-23T18:31:46.656Z,24.55
2023-05-23T18:34:16.122Z,17.75
2023-05-23T18:36:45.782Z,13.32
2023-05-23T18:39:16.827Z,14.68
2023-05-23T18:41:47.377Z,12.45
2023-05-23T18:44:20.527Z,21.10
2023-05-23T18:46:52.397Z,13.95
2023-05-23T18:49:23.333Z,14.00
2023-05-23T18:51:55.927Z,16.90
2023-05-23T18:54:25.215Z,17.13
2023-05-23T18:56:55.534Z,13.45
2023-05-23T18:59:24.754Z,16.13
2023-05-23T19:01:58.976Z,20.13
2023-05-23T19:04:33.899Z,17.30
2023-05-23T19:07:09.631Z,18.52
2023-05-23T19:09:40.501Z,20.90
2023-05-23T19:12:09.880Z,14.60
2023-05-23T19:14:39.664Z,13.32
2023-05-23T19:17:10.728Z,16.45
2023-05-23T19:19:48.524Z,15.20
2023-05-23T19:22:21.259Z,12.63
2023-05-23T19:24:52.425Z,13.57
2023-05-23T19:27:24.135Z,16.85
2023-05-23T19:29:55.253Z,18.58
2023-05-23T19:32:28.442Z,16.02
2023-05-23T19:34:58.626Z,16.38
2023-05-23T19:37:29.185Z,21.20
2023-05-23T19:39:59.492Z,20.77
2023-05-23T19:42:28.482Z,15.88
2023-05-23T19:44:58.235Z,11.40
2023-05-23T19:47:32.468Z,15.65
2023-05-23T19:50:08.887Z,18.90
2023-05-23T19:52:40.186Z,8.60
2023-05-23T19:55:17.231Z,9.73
2023-05-23T19:57:47.289Z,9.40
2023-05-23T20:00:17.076Z,14.40
2023-05-23T20:02:48.158Z,18.23
2023-05-23T20:05:18.952Z,11.73
2023-05-23T20:07:47.955Z,14.45
2023-05-23T20:10:20.126Z,16.50
2023-05-23T20:12:49.375Z,15.50
2023-05-23T20:15:31.321Z,16.05
2023-05-23T20:18:12.256Z,14.25
2023-05-23T20:20:42.712Z,21.85
2023-05-23T20:23:11.899Z,16.77
2023-05-23T20:25:41.608Z,15.00
2023-05-23T20:28:17.514Z,17.42
2023-05-23T20:30:48.126Z,13.80
2023-05-23T20:33:19.138Z,19.90
2023-05-23T20:35:49.840Z,14.65
2023-05-23T20:38:21.593Z,17.42
2023-05-23T20:40:52.445Z,12.13
2023-05-23T20:43:24.784Z,18.20
2023-05-23T20:45:57.569Z,13.02
2023-05-23T20:48:32.693Z,19.02
2023-05-23T20:51:02.195Z,14.38
2023-05-23T20:53:32.636Z,23.70
2023-05-23T20:56:02.232Z,18.42
2023-05-23T20:58:32.967Z,15.27
2023-05-23T21:01:02.468Z,13.32
2023-05-23T21:03:34.856Z,11.77
2023-05-23T21:06:03.726Z,18.70
2023-05-23T21:08:34.516Z,17.75
2023-05-23T21:11:04.012Z,15.52
2023-05-23T21:13:32.801Z,15.75
2023-05-23T21:16:03.422Z,9.95
2023-05-23T21:18:34.426Z,20.80
2023-05-23T21:21:03.571Z,14.45
2023-05-23T21:23:32.613Z,11.10
2023-05-23T21:26:01.853Z,15.85
2023-05-23T21:28:31.230Z,20.10
2023-05-23T21:31:01.950Z,20.73
2023-05-23T21:33:30.569Z,19.77
2023-05-23T21:36:01.154Z,20.23
2023-05-23T21:38:30.341Z,13.23
2023-05-23T21:40:59.131Z,13.40
2023-05-23T21:43:27.924Z,11.90
2023-05-23T21:45:57.704Z,15.90
2023-05-23T21:48:26.775Z,17.13
2023-05-23T21:50:55.810Z,16.90
2023-05-23T21:53:26.377Z,16.90
2023-05-23T21:55:55.170Z,23.27
2023-05-23T21:58:23.806Z,17.45
2023-05-23T22:00:52.922Z,25.83
2023-05-23T22:03:22.141Z,13.35
2023-05-23T22:05:50.831Z,20.55
2023-05-23T22:08:20.080Z,17.85
2023-05-23T22:10:50.277Z,14.43
2023-05-23T22:13:19.236Z,12.50
2023-05-23T22:15:48.046Z,16.20
2023-05-23T22:18:16.964Z,17.77
2023-05-23T22:20:46.057Z,15.18
2023-05-23T22:23:17.295Z,17.40
2023-05-23T22:25:46.210Z,16.85
2023-05-23T22:28:16.354Z,12.90
2023-05-23T22:30:44.915Z,15.73
2023-05-23T22:33:13.806Z,23.45
2023-05-23T22:35:42.758Z,18.38
2023-05-23T22:38:11.656Z,11.18
2023-05-23T22:40:41.446Z,22.17
2023-05-23T22:43:09.954Z,18.55
2023-05-23T22:45:42.563Z,17.85
2023-05-23T22:48:11.538Z,21.08
2023-05-23T22:50:41.705Z,15.77
2023-05-23T22:53:11.611Z,23.15
2023-05-23T22:55:40.262Z,16.42
2023-05-23T22:58:09.071Z,17.42
2023-05-23T23:00:39.170Z,22.67
2023-05-23T23:03:08.391Z,14.82
2023-05-23T23:05:36.811Z,24.10
2023-05-23T23:08:05.432Z,14.32
2023-05-23T23:10:33.836Z,17.50
2023-05-23T23:13:02.490Z,17.20
2023-05-23T23:15:34.002Z,15.15
2023-05-23T23:18:05.592Z,17.95
2023-05-23T23:20:34.323Z,19.02
2023-05-23T23:23:02.806Z,11.75
2023-05-23T23:25:31.183Z,14.90
2023-05-23T23:27:59.735Z,16.52
2023-05-23T23:30:28.070Z,18.73
2023-05-23T23:32:56.628Z,19.67
2023-05-23T23:35:26.555Z,15.73
2023-05-23T23:37:55.078Z,12.43
2023-05-23T23:40:23.480Z,10.25
2023-05-23T23:42:51.846Z,6.00
2023-05-23T23:45:20.551Z,17.23
2023-05-23T23:47:49.075Z,14.25
2023-05-23T23:50:17.594Z,10.38
2023-05-23T23:52:47.621Z,13.73
2023-05-23T23:55:16.118Z,14.38
2023-05-23T23:57:44.523Z,15.90
